Praha-Libus, Czech Republic
Current Conditions -  °F | °C
As of 11:00 AM on Wednesday 26 Nov 2014 (Local Time) from LKKB Reporting Station
Clear Clear  
Wind Chill: 29°   Ceiling: Unl
Heat Index: 36°   Visibility: 4mi
Dew Point: 32°   Wind: 9mph
Humidity: 87%   Direction: 130°SE
Pressure: 30.21"   Gusts: NA
Location:  50.01°N, 14.46°E
Report Text: LKKB 260900Z 13008KT 6000 NSC 02/M00 Q1023 NOSIG
Loading
Personal Weather Stations






























Interactive Weather Map New forecast layout! Learn more

10-Day Weather Forecast

Advertisements
Track Severe Weather on mobile